createdAt,value
2019-04-03T00:01:58.255Z,5.03
2019-04-03T00:04:24.664Z,5.15
2019-04-03T00:06:51.158Z,4.25
2019-04-03T00:09:17.572Z,4.78
2019-04-03T00:11:44.136Z,3.65
2019-04-03T00:14:12.231Z,5.65
2019-04-03T00:16:38.902Z,4.62
2019-04-03T00:19:05.394Z,4.10
2019-04-03T00:21:31.757Z,4.10
2019-04-03T00:23:58.161Z,4.75
2019-04-03T00:26:25.707Z,4.60
2019-04-03T00:28:52.577Z,4.22
2019-04-03T00:31:19.031Z,4.87
2019-04-03T00:33:45.519Z,4.10
2019-04-03T00:36:12.065Z,5.00
2019-04-03T00:38:38.652Z,4.17
2019-04-03T00:41:05.126Z,4.50
2019-04-03T00:43:31.484Z,4.80
2019-04-03T00:45:57.870Z,4.85
2019-04-03T00:48:25.735Z,4.20
2019-04-03T00:50:52.566Z,4.15
2019-04-03T00:53:19.030Z,4.65
2019-04-03T00:55:45.391Z,4.10
2019-04-03T00:58:34.343Z,4.10
2019-04-03T01:01:00.698Z,4.60
2019-04-03T01:03:28.250Z,5.22
2019-04-03T01:05:55.240Z,3.98
2019-04-03T01:08:21.715Z,6.17
2019-04-03T01:10:49.060Z,4.33
2019-04-03T01:13:15.424Z,4.62
2019-04-03T01:15:41.792Z,5.53
2019-04-03T01:18:08.155Z,5.30
2019-04-03T01:20:36.113Z,4.85
2019-04-03T01:23:02.912Z,4.95
2019-04-03T01:25:29.278Z,6.05
2019-04-03T01:27:55.641Z,5.12
2019-04-03T01:30:22.461Z,3.77
2019-04-03T01:32:48.849Z,4.00
2019-04-03T01:35:15.707Z,5.90
2019-04-03T01:37:43.535Z,4.25
2019-04-03T01:40:09.886Z,5.37
2019-04-03T01:42:36.253Z,4.92
2019-04-03T01:45:03.408Z,5.67
2019-04-03T01:47:29.868Z,4.12
2019-04-03T01:49:58.154Z,3.98
2019-04-03T01:52:24.545Z,4.37
2019-04-03T01:54:50.947Z,4.03
2019-04-03T01:57:17.418Z,3.90
2019-04-03T01:59:43.782Z,4.30
2019-04-03T02:02:10.143Z,4.35
2019-04-03T02:04:36.606Z,4.22
2019-04-03T02:07:04.087Z,4.42
2019-04-03T02:09:30.427Z,4.40
2019-04-03T02:11:56.788Z,4.37
2019-04-03T02:14:23.235Z,4.22
2019-04-03T02:16:49.731Z,4.35
2019-04-03T02:19:16.102Z,4.40
2019-04-03T02:21:42.442Z,4.03
2019-04-03T02:24:09.004Z,4.65
2019-04-03T02:26:35.477Z,4.65
2019-04-03T02:29:04.324Z,4.40
2019-04-03T02:31:30.345Z,4.25
2019-04-03T02:33:56.862Z,4.60
2019-04-03T02:36:23.205Z,4.78
2019-04-03T02:38:51.501Z,3.77
2019-04-03T02:41:17.836Z,4.12
2019-04-03T02:43:46.349Z,3.67
2019-04-03T02:46:12.568Z,4.80
2019-04-03T02:48:39.053Z,4.33
2019-04-03T02:51:05.707Z,4.40
2019-04-03T02:53:32.195Z,4.08
2019-04-03T02:55:58.593Z,4.15
2019-04-03T02:58:24.996Z,4.05
2019-04-03T03:00:51.519Z,4.37
2019-04-03T03:03:18.503Z,3.60
2019-04-03T03:05:45.337Z,6.20
2019-04-03T03:08:11.826Z,5.08
2019-04-03T03:10:38.298Z,4.20
2019-04-03T03:13:04.924Z,4.37
2019-04-03T03:15:31.411Z,4.15
2019-04-03T03:17:57.789Z,4.03
2019-04-03T03:20:24.558Z,3.90
2019-04-03T03:22:51.635Z,5.80
2019-04-03T03:25:18.422Z,5.30
2019-04-03T03:27:45.312Z,4.15
2019-04-03T03:30:32.764Z,7.33
2019-04-03T03:32:40.625Z,4.50
2019-04-03T03:35:13.809Z,5.47
2019-04-03T03:37:35.738Z,11.12
2019-04-03T03:40:04.042Z,6.25
2019-04-03T03:42:32.046Z,8.85
2019-04-03T03:45:00.055Z,14.00
2019-04-03T03:47:27.184Z,12.58
2019-04-03T03:49:54.114Z,12.13
2019-04-03T03:52:20.618Z,8.90
2019-04-03T03:54:49.656Z,7.42
2019-04-03T03:57:15.432Z,11.75
2019-04-03T03:59:41.907Z,17.87
2019-04-03T04:02:08.328Z,22.77
2019-04-03T04:04:34.854Z,31.42
2019-04-03T04:07:03.503Z,47.40
2019-04-03T04:09:29.909Z,31.57
2019-04-03T04:11:56.651Z,28.20
2019-04-03T04:14:23.617Z,21.23
2019-04-03T04:16:50.442Z,21.73
2019-04-03T04:19:17.071Z,20.70
2019-04-03T04:21:45.049Z,25.88
2019-04-03T04:24:11.873Z,22.55
2019-04-03T04:26:38.502Z,22.98
2019-04-03T04:29:04.918Z,22.48
2019-04-03T04:31:31.500Z,26.02
2019-04-03T04:33:58.039Z,24.12
2019-04-03T04:36:24.905Z,23.42
2019-04-03T04:38:51.468Z,22.48
2019-04-03T04:41:18.906Z,24.87
2019-04-03T04:43:45.339Z,22.22
2019-04-03T04:46:13.310Z,20.90
2019-04-03T04:48:41.036Z,22.20
2019-04-03T04:51:07.517Z,24.77
2019-04-03T04:53:34.100Z,22.90
2019-04-03T04:56:00.814Z,24.02
2019-04-03T04:58:27.334Z,26.00
2019-04-03T05:00:53.891Z,28.57
2019-04-03T05:03:21.852Z,23.42
2019-04-03T05:05:48.754Z,28.98
2019-04-03T05:08:15.142Z,25.72
2019-04-03T05:10:41.781Z,28.73
2019-04-03T05:13:08.448Z,40.40
2019-04-03T05:15:34.867Z,30.82
2019-04-03T05:18:01.368Z,32.13
2019-04-03T05:20:27.855Z,30.88
2019-04-03T05:22:55.361Z,30.12
2019-04-03T05:25:23.293Z,29.52
2019-04-03T05:27:49.646Z,26.73
2019-04-03T05:30:30.770Z,27.58
2019-04-03T05:32:57.824Z,26.60
2019-04-03T05:35:24.202Z,27.02
2019-04-03T05:37:50.939Z,26.65
2019-04-03T05:40:17.966Z,26.00
2019-04-03T05:42:44.425Z,30.00
2019-04-03T05:45:10.811Z,29.50
2019-04-03T05:47:39.501Z,24.20
2019-04-03T05:50:05.555Z,23.47
2019-04-03T05:52:33.162Z,24.27
2019-04-03T05:55:00.498Z,23.50
2019-04-03T05:57:28.675Z,21.73
2019-04-03T06:00:00.942Z,22.42
2019-04-03T06:02:23.601Z,24.65
2019-04-03T06:04:50.110Z,22.37
2019-04-03T06:07:18.236Z,21.02
2019-04-03T06:09:44.793Z,24.57
2019-04-03T06:12:13.500Z,26.17
2019-04-03T06:14:39.475Z,25.00
2019-04-03T06:17:05.923Z,21.12
2019-04-03T06:19:34.759Z,20.20
2019-04-03T06:22:00.858Z,21.00
2019-04-03T06:24:27.198Z,20.75
2019-04-03T06:26:53.808Z,24.27
2019-04-03T06:29:20.643Z,22.45
2019-04-03T06:31:47.146Z,22.75
2019-04-03T06:34:13.685Z,22.58
2019-04-03T06:36:40.112Z,20.17
2019-04-03T06:39:06.874Z,19.95
2019-04-03T06:41:33.259Z,19.55
2019-04-03T06:43:59.738Z,17.85
2019-04-03T06:46:29.186Z,21.02
2019-04-03T06:48:56.252Z,21.68
2019-04-03T06:51:22.715Z,16.87
2019-04-03T06:53:49.293Z,17.77
2019-04-03T06:56:15.838Z,14.68
2019-04-03T06:58:44.396Z,19.07
2019-04-03T07:01:10.861Z,14.93
2019-04-03T07:03:37.387Z,18.48
2019-04-03T07:06:03.888Z,15.88
2019-04-03T07:08:34.841Z,17.67
2019-04-03T07:10:58.584Z,15.93
2019-04-03T07:13:24.959Z,16.10
2019-04-03T07:15:51.322Z,16.35
2019-04-03T07:18:17.688Z,15.45
2019-04-03T07:20:44.204Z,15.63
2019-04-03T07:23:10.610Z,19.85
2019-04-03T07:25:37.086Z,14.05
2019-04-03T07:28:03.539Z,277.82
2019-04-03T07:30:31.048Z,376.10
2019-04-03T07:32:58.784Z,323.15
2019-04-03T07:35:25.226Z,245.78
2019-04-03T07:37:52.082Z,240.20
2019-04-03T07:40:18.742Z,234.98
2019-04-03T07:42:46.927Z,197.37
2019-04-03T07:45:13.290Z,214.12
2019-04-03T07:47:39.744Z,173.72
2019-04-03T07:50:06.354Z,163.05
2019-04-03T07:52:32.706Z,152.47
2019-04-03T07:54:59.083Z,148.78
2019-04-03T07:57:28.143Z,138.35
2019-04-03T07:59:53.734Z,128.72
2019-04-03T08:02:20.125Z,156.87
2019-04-03T08:04:46.501Z,144.60
2019-04-03T08:07:12.866Z,166.30
2019-04-03T08:09:39.227Z,137.77
2019-04-03T08:12:05.715Z,132.65
2019-04-03T08:14:32.169Z,148.57
2019-04-03T08:16:58.579Z,148.90
2019-04-03T08:19:24.936Z,125.78
2019-04-03T08:21:51.389Z,123.28
2019-04-03T08:24:17.857Z,151.22
2019-04-03T08:26:44.869Z,124.60
2019-04-03T08:29:11.407Z,125.90
2019-04-03T08:31:37.803Z,129.87
2019-04-03T08:34:14.849Z,129.85
2019-04-03T08:36:32.462Z,121.20
2019-04-03T08:38:58.959Z,105.67
2019-04-03T08:41:25.446Z,111.45
2019-04-03T08:43:51.886Z,107.20
2019-04-03T08:46:18.297Z,110.60
2019-04-03T08:48:45.947Z,106.72
2019-04-03T08:51:12.347Z,98.50
2019-04-03T08:53:39.703Z,95.72
2019-04-03T08:56:06.353Z,95.35
2019-04-03T08:58:32.822Z,110.63
2019-04-03T09:00:59.364Z,102.05
2019-04-03T09:03:26.185Z,89.37
2019-04-03T09:05:55.642Z,105.17
2019-04-03T09:08:21.047Z,97.15
2019-04-03T09:10:47.435Z,83.33
2019-04-03T09:13:18.062Z,94.17
2019-04-03T09:15:42.976Z,81.67
2019-04-03T09:18:09.555Z,80.50
2019-04-03T09:20:36.118Z,91.15
2019-04-03T09:23:02.708Z,95.28
2019-04-03T09:25:29.844Z,83.03
2019-04-03T09:27:58.475Z,86.32
2019-04-03T09:30:25.017Z,80.35
2019-04-03T09:32:53.311Z,73.75
2019-04-03T09:35:19.764Z,77.65
2019-04-03T09:37:46.730Z,66.90
2019-04-03T09:40:16.481Z,63.90
2019-04-03T09:42:41.623Z,70.20
2019-04-03T09:45:08.339Z,72.30
2019-04-03T09:47:35.713Z,80.85
2019-04-03T09:50:04.539Z,71.60
2019-04-03T09:52:39.469Z,69.90
2019-04-03T09:55:00.309Z,75.65
2019-04-03T09:57:28.675Z,74.92
2019-04-03T09:59:55.897Z,77.55
2019-04-03T10:02:22.367Z,73.57
2019-04-03T10:04:48.868Z,74.12
2019-04-03T10:07:15.319Z,79.15
2019-04-03T10:09:43.990Z,65.40
2019-04-03T10:12:10.366Z,72.22
2019-04-03T10:14:37.042Z,70.42
2019-04-03T10:17:03.876Z,74.22
2019-04-03T10:19:31.948Z,68.62
2019-04-03T10:21:58.532Z,65.22
2019-04-03T10:24:26.665Z,66.92
2019-04-03T10:26:53.211Z,62.48
2019-04-03T10:29:19.686Z,56.88
2019-04-03T10:31:46.171Z,59.55
2019-04-03T10:34:14.454Z,53.20
2019-04-03T10:36:42.966Z,58.42
2019-04-03T10:39:11.253Z,51.48
2019-04-03T10:41:37.871Z,27.62
2019-04-03T10:44:04.828Z,20.75
2019-04-03T10:46:31.295Z,19.87
2019-04-03T10:48:59.588Z,22.45
2019-04-03T10:51:26.279Z,20.12
2019-04-03T10:53:52.742Z,29.45
2019-04-03T10:56:19.429Z,31.65
2019-04-03T10:58:45.895Z,32.70
2019-04-03T11:01:12.348Z,20.62
2019-04-03T11:03:38.819Z,24.47
2019-04-03T11:06:05.229Z,27.10
2019-04-03T11:08:31.698Z,25.10
2019-04-03T11:10:58.859Z,23.42
2019-04-03T11:13:25.745Z,21.33
2019-04-03T11:15:52.495Z,21.97
2019-04-03T11:18:21.064Z,24.25
2019-04-03T11:20:48.317Z,20.43
2019-04-03T11:23:14.749Z,22.52
2019-04-03T11:25:42.179Z,25.30
2019-04-03T11:28:08.848Z,20.35
2019-04-03T11:30:36.854Z,18.73
2019-04-03T11:33:03.635Z,19.52
2019-04-03T11:35:30.531Z,16.90
2019-04-03T11:37:57.463Z,17.23
2019-04-03T11:40:25.073Z,16.15
2019-04-03T11:42:52.304Z,13.93
2019-04-03T11:45:19.270Z,15.53
2019-04-03T11:47:46.386Z,10.98
2019-04-03T11:50:13.358Z,14.18
2019-04-03T11:52:40.104Z,10.68
2019-04-03T11:55:09.897Z,10.78
2019-04-03T11:57:35.147Z,13.72
2019-04-03T12:00:03.410Z,10.32
2019-04-03T12:02:31.201Z,12.58
2019-04-03T12:04:57.660Z,13.10
2019-04-03T12:07:25.135Z,12.05
2019-04-03T12:09:51.902Z,10.48
2019-04-03T12:12:18.507Z,7.40
2019-04-03T12:14:44.940Z,8.20
2019-04-03T12:17:11.351Z,9.23
2019-04-03T12:19:38.530Z,9.78
2019-04-03T12:22:05.450Z,6.70
2019-04-03T12:24:31.906Z,3.98
2019-04-03T12:26:58.610Z,6.72
2019-04-03T12:29:25.267Z,3.75
2019-04-03T12:31:51.732Z,3.80
2019-04-03T12:34:18.097Z,4.12
2019-04-03T12:36:46.224Z,6.22
2019-04-03T12:39:15.408Z,3.62
2019-04-03T12:41:43.218Z,3.22
2019-04-03T12:44:10.148Z,4.60
2019-04-03T12:46:37.358Z,3.85
2019-04-03T12:49:07.331Z,2.67
2019-04-03T12:51:33.800Z,4.10
2019-04-03T12:54:00.308Z,4.05
2019-04-03T12:56:29.321Z,3.65
2019-04-03T12:58:55.325Z,4.55
2019-04-03T13:01:22.119Z,2.20
2019-04-03T13:03:48.494Z,1.92
2019-04-03T13:06:14.924Z,2.55
2019-04-03T13:08:42.776Z,3.75
2019-04-03T13:11:09.302Z,3.35
2019-04-03T13:13:38.037Z,2.85
2019-04-03T13:16:04.132Z,3.25
2019-04-03T13:18:31.003Z,1.98
2019-04-03T13:20:57.429Z,2.17
2019-04-03T13:23:25.059Z,2.20
2019-04-03T13:25:53.191Z,4.33
2019-04-03T13:28:19.984Z,2.70
2019-04-03T13:30:47.318Z,2.10
2019-04-03T13:33:16.568Z,2.02
2019-04-03T13:35:42.152Z,2.95
2019-04-03T13:38:08.694Z,20.48
2019-04-03T13:40:37.761Z,3.15
2019-04-03T13:43:03.434Z,2.87
2019-04-03T13:45:31.081Z,4.30
2019-04-03T13:47:59.339Z,1.85
2019-04-03T13:50:25.785Z,3.10
2019-04-03T13:52:52.377Z,1.60
2019-04-03T13:55:19.017Z,2.55
2019-04-03T13:57:46.925Z,1.65
2019-04-03T14:00:21.108Z,1.55
2019-04-03T14:02:44.940Z,2.87
2019-04-03T14:05:10.775Z,2.12
2019-04-03T14:07:40.478Z,1.95
2019-04-03T14:10:07.647Z,2.55
2019-04-03T14:12:36.626Z,3.17
2019-04-03T14:15:06.406Z,2.30
2019-04-03T14:17:35.718Z,2.47
2019-04-03T14:20:01.723Z,1.37
2019-04-03T14:22:30.494Z,3.05
2019-04-03T14:24:56.474Z,2.98
2019-04-03T14:27:26.606Z,3.62
2019-04-03T14:29:51.150Z,2.92
2019-04-03T14:32:19.821Z,2.87
2019-04-03T14:34:45.814Z,1.42
2019-04-03T14:37:12.385Z,2.70
2019-04-03T14:39:39.703Z,1.70
2019-04-03T14:42:08.154Z,1.60
2019-04-03T14:44:35.076Z,1.80
2019-04-03T14:47:01.523Z,1.82
2019-04-03T14:49:30.842Z,4.90
2019-04-03T14:51:56.225Z,3.50
2019-04-03T14:54:24.567Z,4.95
2019-04-03T14:56:51.361Z,4.80
2019-04-03T14:59:17.971Z,2.17
2019-04-03T15:01:44.492Z,7.42
2019-04-03T15:04:10.883Z,17.57
2019-04-03T15:06:37.278Z,6.22
2019-04-03T15:09:06.165Z,4.10
2019-04-03T15:11:34.654Z,3.33
2019-04-03T15:14:01.048Z,3.00
2019-04-03T15:16:27.632Z,1.52
2019-04-03T15:18:55.774Z,3.22
2019-04-03T15:21:23.706Z,1.87
2019-04-03T15:23:50.801Z,6.10
2019-04-03T15:26:17.241Z,3.12
2019-04-03T15:28:45.369Z,4.40
2019-04-03T15:31:13.752Z,8.28
2019-04-03T15:33:40.143Z,33.65
2019-04-03T15:36:06.791Z,29.65
2019-04-03T15:38:33.761Z,29.95
2019-04-03T15:41:00.363Z,26.45
2019-04-03T15:43:26.824Z,26.17
2019-04-03T15:45:55.560Z,25.68
2019-04-03T15:48:22.863Z,556.92
2019-04-03T15:50:49.997Z,850.35
2019-04-03T15:53:16.441Z,926.40
2019-04-03T15:55:42.907Z,965.62
2019-04-03T15:58:09.418Z,937.60
2019-04-03T16:00:36.623Z,836.67
2019-04-03T16:03:03.345Z,882.85
2019-04-03T16:05:31.259Z,727.20
2019-04-03T16:07:58.532Z,824.92
2019-04-03T16:10:25.323Z,757.70
2019-04-03T16:12:52.001Z,758.00
2019-04-03T16:15:21.667Z,685.67
2019-04-03T16:17:48.601Z,657.77
2019-04-03T16:20:17.672Z,651.10
2019-04-03T16:22:44.303Z,656.90
2019-04-03T16:25:11.123Z,612.50
2019-04-03T16:27:38.027Z,638.72
2019-04-03T16:30:07.164Z,639.60
2019-04-03T16:32:33.837Z,609.70
2019-04-03T16:35:00.328Z,589.05
2019-04-03T16:37:26.799Z,626.10
2019-04-03T16:39:53.592Z,601.45
2019-04-03T16:42:20.285Z,613.05
2019-04-03T16:44:46.703Z,603.45
2019-04-03T16:47:14.443Z,534.83
2019-04-03T16:49:42.138Z,586.50
2019-04-03T16:52:08.527Z,556.60
2019-04-03T16:54:34.889Z,530.90
2019-04-03T16:57:03.503Z,525.53
2019-04-03T16:59:30.054Z,546.83
2019-04-03T17:01:56.860Z,510.80
2019-04-03T17:04:27.097Z,498.50
2019-04-03T17:06:52.123Z,516.67
2019-04-03T17:09:18.652Z,510.57
2019-04-03T17:11:48.666Z,477.43
2019-04-03T17:14:13.360Z,479.40
2019-04-03T17:16:39.987Z,477.47
2019-04-03T17:19:07.475Z,474.82
2019-04-03T17:21:37.586Z,451.80
2019-04-03T17:24:02.706Z,459.87
2019-04-03T17:26:29.627Z,448.52
2019-04-03T17:29:03.907Z,436.98
2019-04-03T17:31:24.616Z,411.75
2019-04-03T17:33:51.076Z,406.13
2019-04-03T17:36:19.783Z,408.23
2019-04-03T17:38:47.589Z,379.32
2019-04-03T17:41:14.101Z,366.35
2019-04-03T17:43:43.135Z,368.48
2019-04-03T17:46:08.782Z,370.48
2019-04-03T17:48:35.188Z,394.70
2019-04-03T17:51:02.642Z,391.32
2019-04-03T17:53:29.466Z,377.60
2019-04-03T17:55:55.935Z,370.90
2019-04-03T17:58:22.332Z,380.83
2019-04-03T18:00:51.682Z,368.63
2019-04-03T18:03:19.260Z,346.37
2019-04-03T18:05:45.397Z,352.57
2019-04-03T18:08:11.872Z,356.95
2019-04-03T18:10:38.241Z,344.90
2019-04-03T18:13:04.815Z,346.37
2019-04-03T18:15:32.917Z,340.60
2019-04-03T18:18:00.982Z,342.45
2019-04-03T18:20:29.611Z,335.88
2019-04-03T18:22:57.938Z,331.95
2019-04-03T18:25:24.997Z,322.27
2019-04-03T18:27:51.695Z,322.42
2019-04-03T18:30:18.089Z,318.20
2019-04-03T18:32:45.965Z,317.93
2019-04-03T18:35:13.036Z,324.32
2019-04-03T18:37:41.190Z,311.65
2019-04-03T18:40:09.567Z,319.52
2019-04-03T18:42:36.057Z,314.20
2019-04-03T18:45:05.545Z,308.25
2019-04-03T18:47:41.114Z,302.57
2019-04-03T18:50:02.857Z,292.90
2019-04-03T18:52:29.033Z,295.05
2019-04-03T18:54:55.530Z,301.80
2019-04-03T18:57:22.308Z,283.45
2019-04-03T18:59:48.683Z,275.02
2019-04-03T19:02:15.410Z,292.27
2019-04-03T19:04:41.862Z,275.32
2019-04-03T19:07:08.264Z,284.43
2019-04-03T19:09:34.738Z,270.45
2019-04-03T19:12:08.370Z,278.48
2019-04-03T19:14:31.605Z,275.65
2019-04-03T19:16:57.898Z,271.52
2019-04-03T19:19:24.829Z,250.97
2019-04-03T19:21:54.342Z,263.57
2019-04-03T19:24:19.745Z,267.50
2019-04-03T19:26:46.125Z,253.95
2019-04-03T19:29:12.601Z,254.90
2019-04-03T19:31:40.247Z,239.45
2019-04-03T19:34:07.234Z,248.87
2019-04-03T19:36:33.818Z,250.18
2019-04-03T19:39:00.321Z,237.30
2019-04-03T19:41:26.671Z,236.80
2019-04-03T19:43:53.153Z,227.87
2019-04-03T19:46:20.926Z,222.88
2019-04-03T19:48:47.801Z,202.05
2019-04-03T19:51:14.343Z,218.52
2019-04-03T19:53:40.818Z,225.35
2019-04-03T19:56:08.819Z,223.07
2019-04-03T19:58:35.192Z,214.82
2019-04-03T20:01:03.622Z,217.93
2019-04-03T20:03:29.861Z,213.65
2019-04-03T20:05:56.275Z,214.93
2019-04-03T20:08:22.633Z,213.20
2019-04-03T20:10:49.294Z,214.85
2019-04-03T20:13:15.780Z,209.67
2019-04-03T20:15:42.373Z,216.97
2019-04-03T20:18:08.864Z,199.77
2019-04-03T20:20:35.337Z,199.55
2019-04-03T20:23:01.682Z,197.47
2019-04-03T20:25:28.150Z,200.53
2019-04-03T20:27:56.970Z,195.60
2019-04-03T20:30:23.025Z,196.37
2019-04-03T20:32:49.484Z,191.55
2019-04-03T20:35:17.981Z,193.32
2019-04-03T20:37:44.168Z,190.00
2019-04-03T20:40:10.625Z,181.05
2019-04-03T20:42:37.014Z,184.78
2019-04-03T20:45:07.140Z,180.67
2019-04-03T20:47:33.668Z,179.55
2019-04-03T20:50:00.165Z,172.45
2019-04-03T20:52:26.704Z,173.22
2019-04-03T20:54:53.826Z,167.22
2019-04-03T20:57:20.461Z,180.52
2019-04-03T20:59:58.773Z,165.55
2019-04-03T21:02:15.259Z,160.88
2019-04-03T21:04:41.752Z,167.43
2019-04-03T21:07:08.268Z,157.50
2019-04-03T21:09:34.627Z,157.18
2019-04-03T21:12:01.105Z,156.10
2019-04-03T21:14:27.559Z,154.45
2019-04-03T21:16:56.104Z,152.43
2019-04-03T21:19:22.455Z,153.05
2019-04-03T21:21:48.949Z,143.55
2019-04-03T21:24:15.338Z,144.50
2019-04-03T21:26:41.807Z,144.95
2019-04-03T21:29:08.191Z,143.20
2019-04-03T21:31:34.753Z,146.05
2019-04-03T21:34:02.002Z,141.82
2019-04-03T21:36:28.858Z,141.35
2019-04-03T21:38:55.239Z,143.62
2019-04-03T21:41:21.587Z,136.75
2019-04-03T21:43:47.956Z,131.22
2019-04-03T21:46:14.320Z,130.78
2019-04-03T21:48:40.827Z,125.30
2019-04-03T21:51:07.266Z,126.27
2019-04-03T21:53:33.650Z,122.55
2019-04-03T21:56:02.071Z,130.57
2019-04-03T21:58:28.261Z,120.50
2019-04-03T22:00:58.744Z,126.30
2019-04-03T22:03:25.448Z,120.15
2019-04-03T22:05:51.873Z,121.00
2019-04-03T22:08:18.250Z,109.70
2019-04-03T22:10:44.646Z,116.53
2019-04-03T22:13:10.994Z,115.10
2019-04-03T22:15:37.377Z,110.15
2019-04-03T22:18:03.729Z,110.25
2019-04-03T22:20:30.116Z,116.85
2019-04-03T22:22:56.505Z,108.85
2019-04-03T22:25:22.898Z,108.78
2019-04-03T22:27:49.239Z,116.97
2019-04-03T22:30:15.690Z,109.03
2019-04-03T22:32:42.055Z,105.30
2019-04-03T22:35:08.427Z,103.40
2019-04-03T22:37:35.147Z,102.60
2019-04-03T22:40:03.081Z,104.03
2019-04-03T22:42:30.522Z,96.63
2019-04-03T22:44:56.929Z,104.50
2019-04-03T22:47:25.196Z,92.47
2019-04-03T22:49:51.719Z,95.57
2019-04-03T22:52:18.076Z,96.42
2019-04-03T22:54:44.488Z,95.03
2019-04-03T22:57:10.898Z,94.70
2019-04-03T22:59:37.247Z,90.30
2019-04-03T23:02:03.677Z,91.40
2019-04-03T23:04:30.049Z,90.38
2019-04-03T23:06:56.438Z,88.40
2019-04-03T23:09:24.757Z,87.40
2019-04-03T23:11:51.245Z,88.90
2019-04-03T23:14:17.612Z,89.80
2019-04-03T23:16:44.086Z,91.78
2019-04-03T23:19:10.439Z,84.80
2019-04-03T23:21:36.812Z,83.33
2019-04-03T23:24:03.283Z,76.85
2019-04-03T23:26:31.762Z,79.05
2019-04-03T23:28:57.973Z,81.70
2019-04-03T23:31:24.367Z,81.30
2019-04-03T23:33:50.826Z,80.00
2019-04-03T23:36:17.175Z,77.05
2019-04-03T23:38:43.541Z,80.90
2019-04-03T23:41:09.907Z,74.95
2019-04-03T23:43:39.196Z,72.08
2019-04-03T23:46:04.497Z,75.83
2019-04-03T23:48:30.891Z,79.92
2019-04-03T23:50:57.228Z,75.87
2019-04-03T23:53:23.620Z,73.80
2019-04-03T23:55:49.971Z,75.28
2019-04-03T23:58:16.317Z,72.00
